Time;durP1;ratioP1;P1;durP2;ratioP2;P2;SDS_P1;SDS_P2;PMS_P1;PMS_P2;Temp;Humidity;BMP_temperature;BMP_pressure;BME280_temperature;BME280_humidity;BME280_pressure;Samples;Min_cycle;Max_cycle;Signal;HPM_P1;HPM_P2
2023/03/25 05:31:08;;;;;;;10.48;1.85;;;9.70;80.10;;;;;;5633666;23;20051;-74
2023/03/25 05:33:36;;;;;;;6.45;1.63;;;9.70;80.10;;;;;;4972622;28;20034;-73
2023/03/25 05:36:03;;;;;;;12.48;1.90;;;9.70;80.10;;;;;;4977007;28;20407;-74
2023/03/25 05:38:29;;;;;;;9.20;2.17;;;9.70;80.20;;;;;;4976368;28;20038;-73
2023/03/25 05:40:55;;;;;;;12.10;1.85;;;9.60;80.30;;;;;;4969453;28;20034;-73
2023/03/25 05:43:21;;;;;;;5.65;1.80;;;9.70;80.30;;;;;;4957493;29;20402;-73
2023/03/25 05:45:47;;;;;;;12.23;2.65;;;9.70;80.40;;;;;;4957333;29;20038;-73
2023/03/25 05:48:13;;;;;;;9.85;1.70;;;9.70;80.50;;;;;;4954220;29;20031;-73
2023/03/25 05:50:41;;;;;;;10.18;2.20;;;9.70;80.50;;;;;;4957419;29;20034;-74
2023/03/25 05:53:10;;;;;;;6.65;2.08;;;9.70;80.50;;;;;;4964871;28;20027;-73
2023/03/25 05:55:35;;;;;;;6.60;1.80;;;9.60;80.70;;;;;;4976729;28;20066;-74
2023/03/25 05:58:01;;;;;;;4.20;1.50;;;9.70;80.60;;;;;;4965669;28;20033;-73
2023/03/25 06:00:27;;;;;;;8.32;1.88;;;9.70;80.40;;;;;;4939822;28;20031;-74
2023/03/25 06:02:53;;;;;;;9.15;1.92;;;9.70;80.40;;;;;;4972803;28;20023;-73
2023/03/25 06:05:22;;;;;;;16.52;2.78;;;9.70;80.30;;;;;;4981817;28;20474;-74
2023/03/25 06:07:48;;;;;;;7.63;2.15;;;9.70;80.30;;;;;;4983229;28;20054;-74
2023/03/25 06:10:15;;;;;;;7.32;1.80;;;9.70;80.50;;;;;;4968324;28;20038;-74
2023/03/25 06:12:42;;;;;;;10.73;2.33;;;9.70;80.50;;;;;;4982757;28;20046;-74
2023/03/25 06:15:10;;;;;;;16.15;2.53;;;9.70;80.70;;;;;;4983297;28;20034;-74
2023/03/25 06:17:39;;;;;;;8.13;1.88;;;9.80;80.40;;;;;;4974978;28;20031;-74
2023/03/25 06:20:11;;;;;;;8.02;1.55;;;9.80;80.40;;;;;;4973256;28;20041;-74
2023/03/25 06:22:42;;;;;;;8.43;2.13;;;9.80;80.20;;;;;;4965878;28;20033;-74
2023/03/25 06:25:09;;;;;;;8.23;2.30;;;9.80;80.40;;;;;;4963933;29;20443;-74
2023/03/25 06:27:39;;;;;;;7.28;1.75;;;9.80;80.30;;;;;;4963755;29;20027;-74
2023/03/25 06:30:06;;;;;;;7.53;1.58;;;9.90;80.00;;;;;;4963787;28;20060;-74
2023/03/25 06:32:32;;;;;;;12.35;2.25;;;10.00;79.90;;;;;;4951947;28;20506;-74
2023/03/25 06:34:58;;;;;;;9.18;1.63;;;10.00;79.70;;;;;;4981088;28;20035;-74
2023/03/25 06:37:24;;;;;;;5.30;1.58;;;10.10;79.40;;;;;;4958088;28;20034;-74
2023/03/25 06:39:55;;;;;;;7.53;1.90;;;10.10;79.30;;;;;;4973776;28;20042;-74
2023/03/25 06:42:24;;;;;;;;;;;10.20;79.20;;;;;;4980512;28;20026;-74
2023/03/25 06:44:50;;;;;;;9.27;2.13;;;10.20;78.90;;;;;;4967942;28;19914;-74
2023/03/25 06:47:16;;;;;;;2.38;1.38;;;10.30;78.90;;;;;;4963559;29;20546;-74
2023/03/25 06:49:41;;;;;;;12.65;2.08;;;10.30;78.70;;;;;;4963689;28;20041;-73
2023/03/25 06:52:07;;;;;;;9.57;1.90;;;10.40;78.60;;;;;;4963382;28;20027;-73
2023/03/25 06:54:32;;;;;;;8.95;1.88;;;10.40;78.40;;;;;;4963227;28;20050;-79
2023/03/25 06:56:58;;;;;;;9.88;1.65;;;10.50;78.20;;;;;;4981134;28;20031;-78
2023/03/25 06:59:24;;;;;;;7.00;1.83;;;10.60;78.00;;;;;;4965114;28;20023;-78
2023/03/25 07:01:50;;;;;;;10.07;2.05;;;10.70;77.70;;;;;;4982557;28;20413;-78
2023/03/25 07:04:15;;;;;;;5.63;1.92;;;10.70;77.50;;;;;;4982351;28;20034;-78
2023/03/25 07:06:41;;;;;;;10.02;1.83;;;10.80;77.40;;;;;;4972963;28;20038;-76
2023/03/25 07:09:07;;;;;;;9.85;1.67;;;10.80;77.10;;;;;;4946076;29;20031;-77
2023/03/25 07:11:33;;;;;;;5.80;1.77;;;10.90;77.00;;;;;;4957943;28;20046;-76
2023/03/25 07:13:59;;;;;;;7.97;2.47;;;11.00;76.70;;;;;;4982531;28;20042;-78
2023/03/25 07:16:25;;;;;;;4.35;1.45;;;11.20;76.40;;;;;;4958160;28;20110;-78
2023/03/25 07:18:51;;;;;;;18.65;2.53;;;11.30;76.10;;;;;;4960151;29;20032;-78
2023/03/25 07:21:17;;;;;;;8.70;2.63;;;11.30;75.70;;;;;;4960224;29;20055;-83
2023/03/25 07:23:43;;;;;;;7.28;1.67;;;11.50;75.60;;;;;;4952580;28;20115;-85
2023/03/25 07:26:09;;;;;;;10.45;1.65;;;11.50;75.30;;;;;;4979458;28;20105;-80
2023/03/25 07:28:36;;;;;;;5.35;1.52;;;11.50;75.10;;;;;;4979381;28;20130;-80
2023/03/25 07:31:06;;;;;;;14.95;2.28;;;11.60;75.00;;;;;;4970724;28;20482;-75
2023/03/25 07:33:31;;;;;;;10.10;1.70;;;11.70;74.80;;;;;;4971615;28;20031;-80
2023/03/25 07:35:57;;;;;;;6.78;1.58;;;11.70;74.50;;;;;;4970758;28;20035;-79
2023/03/25 07:38:22;;;;;;;12.88;2.33;;;11.80;74.30;;;;;;4978147;28;20121;-78
2023/03/25 07:40:48;;;;;;;10.00;1.52;;;11.80;74.20;;;;;;4956177;28;20178;-78
2023/03/25 07:43:14;;;;;;;8.63;2.10;;;11.80;74.00;;;;;;4974123;28;20031;-79
2023/03/25 07:45:40;;;;;;;6.07;2.20;;;11.90;73.80;;;;;;4971185;28;20019;-79
2023/03/25 07:48:12;;;;;;;8.25;1.60;;;11.90;73.60;;;;;;4976205;28;20038;-79
2023/03/25 07:50:37;;;;;;;8.63;2.75;;;11.90;73.50;;;;;;4974759;28;20019;-79
2023/03/25 07:53:03;;;;;;;10.63;2.45;;;11.90;73.60;;;;;;4960792;28;20045;-79
2023/03/25 07:55:29;;;;;;;10.38;2.10;;;11.90;73.50;;;;;;4977751;28;20405;-79
2023/03/25 07:57:57;;;;;;;10.18;1.70;;;11.90;73.40;;;;;;4959951;28;20034;-79
2023/03/25 08:00:23;;;;;;;4.70;1.90;;;11.90;73.30;;;;;;4977562;28;20422;-79
2023/03/25 08:02:48;;;;;;;9.77;1.60;;;11.90;73.30;;;;;;4960994;28;20034;-79
2023/03/25 08:05:20;;;;;;;9.40;2.42;;;12.00;73.20;;;;;;4973791;28;20034;-79
2023/03/25 08:07:49;;;;;;;6.07;1.60;;;12.00;73.20;;;;;;4954782;28;20405;-78
2023/03/25 08:10:16;;;;;;;11.07;2.55;;;12.00;73.10;;;;;;4958122;28;20090;-77
2023/03/25 08:12:43;;;;;;;8.50;2.50;;;12.00;73.00;;;;;;4981358;28;20735;-79
2023/03/25 08:15:12;;;;;;;7.50;1.70;;;12.00;72.90;;;;;;4982293;28;20038;-78
2023/03/25 08:17:38;;;;;;;8.98;2.65;;;12.00;72.70;;;;;;4984410;28;20485;-78
2023/03/25 08:20:05;;;;;;;5.75;1.67;;;12.00;72.80;;;;;;4974452;28;20026;-78
2023/03/25 08:22:32;;;;;;;8.63;2.08;;;12.00;72.80;;;;;;4970934;28;20678;-85
2023/03/25 08:24:58;;;;;;;6.75;1.58;;;12.00;73.20;;;;;;4973328;28;20106;-79
2023/03/25 08:27:24;;;;;;;10.30;1.73;;;12.00;73.30;;;;;;4974812;28;20027;-79
2023/03/25 08:29:56;;;;;;;13.80;1.95;;;12.00;73.40;;;;;;4977811;28;20082;-79
2023/03/25 08:32:26;;;;;;;14.32;2.17;;;12.10;73.10;;;;;;4955714;28;20081;-79
2023/03/25 08:34:53;;;;;;;12.45;2.67;;;12.10;72.80;;;;;;4957931;28;20029;-79
2023/03/25 08:37:20;;;;;;;8.23;1.67;;;12.20;73.30;;;;;;4960305;28;20402;-78
2023/03/25 08:39:49;;;;;;;8.02;1.77;;;12.10;73.00;;;;;;4975012;28;20047;-79
2023/03/25 08:42:16;;;;;;;9.55;1.65;;;12.10;73.10;;;;;;4975271;28;20062;-79
2023/03/25 08:44:42;;;;;;;11.48;2.40;;;12.10;73.20;;;;;;4960319;28;20015;-79
2023/03/25 08:47:08;;;;;;;9.45;2.08;;;12.20;73.70;;;;;;4976127;28;20027;-78
2023/03/25 08:49:34;;;;;;;15.02;2.55;;;12.20;73.60;;;;;;4960052;28;20075;-78
2023/03/25 08:52:00;;;;;;;10.30;2.10;;;12.20;73.80;;;;;;4960152;28;20031;-78
2023/03/25 08:54:27;;;;;;;12.73;2.33;;;12.30;73.60;;;;;;4956697;28;20031;-78
2023/03/25 08:56:53;;;;;;;10.93;2.60;;;12.30;73.60;;;;;;4977458;28;20027;-78
2023/03/25 08:59:20;;;;;;;12.30;2.30;;;12.30;73.70;;;;;;4977225;28;20023;-78
2023/03/25 09:01:46;;;;;;;8.10;2.00;;;12.30;73.70;;;;;;4957349;28;20903;-78
2023/03/25 09:04:12;;;;;;;18.83;2.95;;;12.30;73.60;;;;;;4977201;28;20027;-79
2023/03/25 09:06:38;;;;;;;13.98;2.95;;;12.40;73.80;;;;;;4956223;28;20037;-78
2023/03/25 09:09:05;;;;;;;9.60;2.00;;;12.50;73.40;;;;;;4960089;28;20545;-79
2023/03/25 09:11:32;;;;;;;13.63;3.25;;;12.60;73.30;;;;;;4977172;28;20106;-79
2023/03/25 09:13:58;;;;;;;14.90;2.45;;;12.60;73.40;;;;;;4976172;28;20015;-79
2023/03/25 09:16:23;;;;;;;13.05;3.13;;;12.70;73.50;;;;;;4975227;28;20493;-79
2023/03/25 09:18:49;;;;;;;13.02;2.35;;;12.80;73.20;;;;;;4959729;28;20018;-79
2023/03/25 09:21:15;;;;;;;13.70;2.15;;;12.80;73.40;;;;;;4977043;28;20046;-78
2023/03/25 09:23:40;;;;;;;9.70;1.83;;;12.90;73.10;;;;;;4957363;28;20031;-79
2023/03/25 09:26:06;;;;;;;7.40;1.67;;;13.00;72.80;;;;;;4976500;28;20030;-78
2023/03/25 09:28:32;;;;;;;20.40;3.45;;;13.10;72.70;;;;;;4959611;28;20078;-78
2023/03/25 09:30:57;;;;;;;14.90;2.00;;;13.10;73.00;;;;;;4956425;28;20121;-80
2023/03/25 09:33:23;;;;;;;15.90;2.75;;;13.10;72.50;;;;;;4952727;28;20517;-80
2023/03/25 09:35:49;;;;;;;12.23;2.08;;;13.10;72.30;;;;;;4977171;28;20027;-80
2023/03/25 09:38:15;;;;;;;8.25;2.40;;;13.20;72.80;;;;;;4959696;28;20026;-80
2023/03/25 09:40:44;;;;;;;15.30;4.03;;;13.20;72.40;;;;;;4972815;28;20043;-80
2023/03/25 09:43:19;;;;;;;12.10;2.13;;;13.20;72.30;;;;;;4973230;28;20019;-79
2023/03/25 09:45:48;;;;;;;14.05;2.70;;;13.30;72.60;;;;;;4975902;28;20022;-77
2023/03/25 09:48:19;;;;;;;13.10;1.98;;;13.40;72.20;;;;;;4974188;28;20015;-77
2023/03/25 09:50:46;;;;;;;12.77;2.13;;;13.50;72.00;;;;;;4976399;28;20030;-79
2023/03/25 09:53:27;;;;;;;5.35;2.10;;;13.50;71.60;;;;;;4976403;28;20109;-80
2023/03/25 09:55:53;;;;;;;;;;;13.60;71.40;;;;;;4957097;28;20031;-79
2023/03/25 09:58:25;;;;;;;10.98;2.72;;;13.70;71.20;;;;;;4958788;28;19910;-78
2023/03/25 10:01:16;;;;;;;10.55;2.50;;;13.80;71.20;;;;;;4976003;28;20054;-83
2023/03/25 10:04:02;;;;;;;12.25;3.63;;;13.80;70.30;;;;;;4973190;28;20034;-81
2023/03/25 10:06:31;;;;;;;11.30;2.30;;;13.80;70.40;;;;;;4943419;28;20105;-80
2023/03/25 10:09:09;;;;;;;11.50;2.58;;;13.80;70.40;;;;;;4963335;28;20035;-80
2023/03/25 10:12:14;;;;;;;8.55;1.80;;;13.90;70.00;;;;;;4951333;28;20034;-80
2023/03/25 10:14:48;;;;;;;11.73;2.22;;;13.90;70.00;;;;;;4969749;28;20027;-89
2023/03/25 10:17:45;;;;;;;13.55;2.05;;;14.10;70.30;;;;;;4965620;28;20065;-82
2023/03/25 10:20:30;;;;;;;17.02;3.08;;;14.20;70.10;;;;;;4973502;28;20055;-82
2023/03/25 10:23:09;;;;;;;22.23;3.00;;;14.30;69.40;;;;;;4954035;28;20019;-81
2023/03/25 10:25:38;;;;;;;14.23;2.03;;;14.30;68.10;;;;;;4953204;28;20031;-79
2023/03/25 10:28:06;;;;;;;7.32;2.05;;;14.30;67.80;;;;;;4952585;28;20769;-79
2023/03/25 10:30:38;;;;;;;12.70;2.33;;;14.30;67.60;;;;;;4965694;28;20035;-79
2023/03/25 10:33:14;;;;;;;13.35;3.00;;;14.30;66.80;;;;;;4973151;28;20070;-79
2023/03/25 10:35:44;;;;;;;17.98;3.17;;;14.40;67.10;;;;;;4965555;28;20039;-80
2023/03/25 10:38:25;;;;;;;22.27;3.40;;;14.50;67.30;;;;;;4953801;28;20065;-81
2023/03/25 10:41:15;;;;;;;7.38;2.40;;;14.50;66.70;;;;;;4971876;28;20030;-81
2023/03/25 10:43:42;;;;;;;22.00;2.80;;;14.50;66.40;;;;;;4975160;28;20023;-81
2023/03/25 10:46:16;;;;;;;15.85;3.00;;;14.60;66.70;;;;;;4971201;28;20039;-81
2023/03/25 10:48:44;;;;;;;8.98;2.42;;;14.60;66.60;;;;;;4958646;28;20027;-81
2023/03/25 10:51:12;;;;;;;12.20;3.17;;;14.70;66.60;;;;;;4958467;28;20062;-81
2023/03/25 10:53:40;;;;;;;7.88;2.20;;;14.80;66.40;;;;;;4971097;28;20027;-81
2023/03/25 10:56:14;;;;;;;7.78;2.40;;;14.80;66.30;;;;;;4975179;28;20114;-81
2023/03/25 10:58:42;;;;;;;16.98;2.50;;;14.90;65.10;;;;;;4962479;28;20383;-81
2023/03/25 11:01:13;;;;;;;8.50;2.42;;;15.00;65.00;;;;;;4979400;28;20026;-80
2023/03/25 11:03:41;;;;;;;13.23;2.85;;;15.00;64.20;;;;;;4971607;28;20094;-78
2023/03/25 11:06:28;;;;;;;12.63;2.38;;;15.00;63.80;;;;;;4978416;28;20023;-77
2023/03/25 11:09:16;;;;;;;15.25;2.30;;;15.00;63.10;;;;;;4954985;28;20086;-85
2023/03/25 11:11:43;;;;;;;10.07;1.90;;;15.10;63.70;;;;;;4958901;28;20405;-78
2023/03/25 11:14:10;;;;;;;15.32;2.28;;;15.00;63.60;;;;;;4957442;28;20809;-78
2023/03/25 11:16:48;;;;;;;8.90;2.08;;;15.00;63.90;;;;;;4972316;28;20046;-77
2023/03/25 11:19:25;;;;;;;12.45;2.15;;;15.00;64.40;;;;;;4975243;28;20015;-80
2023/03/25 11:22:01;;;;;;;11.50;2.08;;;15.10;65.00;;;;;;4978384;28;20038;-80
2023/03/25 11:24:31;;;;;;;13.82;2.17;;;15.10;64.00;;;;;;4976717;28;20394;-78
2023/03/25 11:26:57;;;;;;;9.60;2.33;;;15.10;63.50;;;;;;4976874;28;20486;-78
2023/03/25 11:29:25;;;;;;;15.38;2.45;;;15.00;63.60;;;;;;4968629;28;20027;-79
2023/03/25 11:32:04;;;;;;;10.77;1.95;;;15.00;63.10;;;;;;4960434;28;20477;-79
2023/03/25 11:34:30;;;;;;;8.18;1.65;;;15.00;63.60;;;;;;4971256;28;20609;-78
2023/03/25 11:37:05;;;;;;;12.80;2.10;;;15.00;62.50;;;;;;4961006;28;20077;-76
2023/03/25 11:39:39;;;;;;;8.07;2.08;;;14.80;62.90;;;;;;4973551;28;20114;-78
2023/03/25 11:42:27;;;;;;;11.38;2.00;;;14.90;63.40;;;;;;4952077;28;20031;-77
2023/03/25 11:44:58;;;;;;;10.77;2.15;;;14.90;63.00;;;;;;4974542;28;20113;-78
2023/03/25 11:47:37;;;;;;;12.70;2.35;;;14.90;62.70;;;;;;4956145;28;20190;-77
2023/03/25 11:50:05;;;;;;;7.80;1.88;;;15.00;62.30;;;;;;4944885;28;20125;-77
2023/03/25 11:52:45;;;;;;;8.90;2.30;;;15.10;62.60;;;;;;4960908;28;20038;-77
2023/03/25 11:55:35;;;;;;;18.50;3.00;;;15.20;62.30;;;;;;4973757;28;20030;-77
2023/03/25 11:58:03;;;;;;;14.32;3.05;;;15.30;62.20;;;;;;4977565;28;20027;-78
2023/03/25 12:00:40;;;;;;;16.27;2.58;;;15.50;62.50;;;;;;4961775;28;20117;-79
2023/03/25 12:03:16;;;;;;;9.23;2.40;;;15.70;62.20;;;;;;4954878;28;20035;-79
2023/03/25 12:05:55;;;;;;;9.77;1.83;;;15.80;62.20;;;;;;4953089;28;20022;-77
2023/03/25 12:08:20;;;;;;;10.93;2.17;;;15.80;60.50;;;;;;4959553;29;20031;-76
2023/03/25 12:11:06;;;;;;;11.55;2.83;;;15.80;61.10;;;;;;4966026;28;20445;-77
2023/03/25 12:13:38;;;;;;;12.25;2.38;;;15.70;60.10;;;;;;4963820;28;20406;-76
2023/03/25 12:16:25;;;;;;;12.52;2.45;;;15.70;60.50;;;;;;4951852;28;20023;-75
2023/03/25 12:19:03;;;;;;;10.95;2.03;;;15.70;61.30;;;;;;4941669;29;20041;-78
2023/03/25 12:21:44;;;;;;;10.68;2.90;;;15.70;60.10;;;;;;4972441;28;20059;-77
2023/03/25 12:24:33;;;;;;;13.20;2.38;;;15.70;61.30;;;;;;4959075;29;20147;-81
2023/03/25 12:27:20;;;;;;;10.98;2.30;;;15.70;61.10;;;;;;4941381;29;20043;-77
2023/03/25 12:30:08;;;;;;;9.40;2.38;;;15.70;60.80;;;;;;4960964;28;20027;-77
2023/03/25 12:32:45;;;;;;;17.63;2.55;;;15.80;60.60;;;;;;4964809;28;20039;-76
2023/03/25 12:35:13;;;;;;;14.15;1.92;;;15.80;61.60;;;;;;4979193;28;20031;-77
2023/03/25 12:38:09;;;;;;;9.45;1.83;;;15.60;62.20;;;;;;4967593;28;20082;-76
2023/03/25 12:40:54;;;;;;;11.57;2.05;;;15.50;62.90;;;;;;4963080;28;20023;-76
2023/03/25 12:43:34;;;;;;;13.57;2.45;;;15.40;63.40;;;;;;4978033;28;20023;-76
2023/03/25 12:46:00;;;;;;;;;;;15.30;65.60;;;;;;4971207;28;20042;-79
2023/03/25 12:48:28;;;;;;;9.85;2.00;;;15.30;66.60;;;;;;4957312;29;19915;-77
2023/03/25 12:51:20;;;;;;;8.25;2.08;;;15.20;66.30;;;;;;4958444;28;20505;-76
2023/03/25 12:54:01;;;;;;;7.40;1.70;;;15.30;67.20;;;;;;4941433;29;20027;-76
2023/03/25 12:56:57;;;;;;;12.05;1.88;;;15.50;67.20;;;;;;4958438;29;20027;-77
2023/03/25 12:59:36;;;;;;;11.10;2.38;;;15.80;66.70;;;;;;4958438;28;20596;-78
2023/03/25 13:02:19;;;;;;;12.13;1.80;;;16.10;65.70;;;;;;4966122;28;20350;-77
2023/03/25 13:05:12;;;;;;;11.13;2.30;;;16.20;64.80;;;;;;4974265;28;20101;-77
2023/03/25 13:08:07;;;;;;;14.75;2.53;;;16.20;63.70;;;;;;4977555;28;20030;-73
2023/03/25 13:10:38;;;;;;;9.77;2.35;;;16.30;63.10;;;;;;4927351;28;20537;-77
2023/03/25 13:13:22;;;;;;;12.32;2.13;;;16.40;62.60;;;;;;4974270;28;20027;-76
2023/03/25 13:16:08;;;;;;;7.85;2.17;;;16.50;63.00;;;;;;4963636;28;20039;-78
2023/03/25 13:18:42;;;;;;;13.18;2.28;;;16.20;62.60;;;;;;4959163;28;20065;-78
2023/03/25 13:21:20;;;;;;;14.90;2.35;;;16.30;62.60;;;;;;4959443;28;20043;-78
2023/03/25 13:24:00;;;;;;;17.58;2.97;;;16.30;62.90;;;;;;4955995;28;20027;-78
2023/03/25 13:26:29;;;;;;;10.98;2.17;;;16.30;62.30;;;;;;4953336;28;20034;-78
2023/03/25 13:29:02;;;;;;;11.35;2.05;;;16.30;62.20;;;;;;4974862;28;20023;-77
2023/03/25 13:31:34;;;;;;;11.98;2.15;;;16.40;62.60;;;;;;4957363;28;20533;-78
2023/03/25 13:34:08;;;;;;;15.52;2.30;;;16.50;62.80;;;;;;4974178;28;20118;-77
2023/03/25 13:36:56;;;;;;;11.60;2.33;;;16.50;63.20;;;;;;4973865;28;20022;-77
2023/03/25 13:39:33;;;;;;;12.60;2.15;;;16.40;62.30;;;;;;4955309;28;20069;-79
2023/03/25 13:42:08;;;;;;;11.77;2.22;;;16.40;61.80;;;;;;4951477;28;20129;-77
2023/03/25 13:44:40;;;;;;;15.23;3.67;;;16.50;61.70;;;;;;4965350;28;20106;-78
2023/03/25 13:47:24;;;;;;;13.05;2.42;;;16.60;61.10;;;;;;4975797;28;20122;-77
2023/03/25 13:49:52;;;;;;;11.15;2.45;;;16.50;59.50;;;;;;4969301;28;20452;-79
2023/03/25 13:52:18;;;;;;;9.73;2.17;;;16.40;58.80;;;;;;4970713;28;20074;-77
2023/03/25 13:55:02;;;;;;;9.07;1.45;;;16.30;59.60;;;;;;4951496;28;20031;-81
2023/03/25 13:57:37;;;;;;;12.05;1.88;;;16.40;60.20;;;;;;4970076;28;20378;-78
2023/03/25 14:00:13;;;;;;;9.32;1.55;;;16.40;60.10;;;;;;4973516;28;20041;-78
2023/03/25 14:02:41;;;;;;;10.45;3.72;;;16.50;58.50;;;;;;4973302;28;20023;-77
2023/03/25 14:05:38;;;;;;;8.60;1.42;;;16.60;57.70;;;;;;4957399;28;20027;-77
2023/03/25 14:08:06;;;;;;;10.63;2.05;;;16.60;56.60;;;;;;4970985;28;20023;-77
2023/03/25 14:10:53;;;;;;;7.10;1.10;;;16.50;56.20;;;;;;4975253;28;20030;-79
2023/03/25 14:13:32;;;;;;;7.13;1.52;;;16.60;56.90;;;;;;4970632;28;20030;-79
2023/03/25 14:16:03;;;;;;;12.30;1.60;;;16.60;56.60;;;;;;4958098;28;20029;-79
2023/03/25 14:18:30;;;;;;;8.18;1.55;;;16.60;56.50;;;;;;4971586;28;20041;-79
2023/03/25 14:21:17;;;;;;;9.15;1.75;;;16.70;56.60;;;;;;4975361;28;20085;-79
2023/03/25 14:23:43;;;;;;;5.10;1.23;;;16.70;55.00;;;;;;4957262;28;20039;-79
2023/03/25 14:26:09;;;;;;;8.38;1.35;;;16.80;54.90;;;;;;4978061;28;20037;-79
2023/03/25 14:28:42;;;;;;;7.18;1.50;;;16.80;54.00;;;;;;4977105;28;20141;-78
2023/03/25 14:31:11;;;;;;;4.82;1.40;;;16.60;53.20;;;;;;4978751;28;20042;-79
2023/03/25 14:34:09;;;;;;;6.55;1.85;;;16.60;53.20;;;;;;4976431;28;20063;-79
2023/03/25 14:36:41;;;;;;;8.18;1.52;;;16.60;53.90;;;;;;4969225;28;20027;-81
2023/03/25 14:39:28;;;;;;;9.93;1.38;;;16.70;53.20;;;;;;4974538;28;20043;-81
2023/03/25 14:42:07;;;;;;;11.68;1.48;;;16.80;53.70;;;;;;4978915;28;20823;-81
2023/03/25 14:44:40;;;;;;;4.88;1.40;;;16.80;53.60;;;;;;4975176;28;20397;-81
2023/03/25 14:47:15;;;;;;;5.18;1.38;;;16.70;52.50;;;;;;4960271;28;20030;-79
2023/03/25 14:50:03;;;;;;;7.30;1.30;;;16.70;52.60;;;;;;4978431;28;20027;-81
2023/03/25 14:52:42;;;;;;;5.78;1.92;;;16.70;52.40;;;;;;4968962;28;20505;-81
2023/03/25 14:55:16;;;;;;;11.40;1.58;;;16.70;52.30;;;;;;4971115;28;20049;-81
2023/03/25 14:57:43;;;;;;;7.60;1.58;;;16.70;52.70;;;;;;4954296;28;20489;-81
2023/03/25 15:00:19;;;;;;;8.30;1.23;;;16.60;52.50;;;;;;4976021;28;20459;-82
2023/03/25 15:02:52;;;;;;;8.90;1.75;;;16.50;53.40;;;;;;4974066;28;20049;-81
2023/03/25 15:05:26;;;;;;;8.30;2.05;;;16.50;53.50;;;;;;4977591;28;20058;-81
2023/03/25 15:08:16;;;;;;;9.18;1.75;;;16.40;54.10;;;;;;4976020;28;20019;-81
2023/03/25 15:10:49;;;;;;;8.27;1.77;;;16.40;54.20;;;;;;4970505;28;20031;-80
2023/03/25 15:13:28;;;;;;;16.25;2.25;;;16.30;54.80;;;;;;4976617;28;20599;-81
2023/03/25 15:16:15;;;;;;;11.02;1.67;;;16.30;54.00;;;;;;4959645;28;20717;-81
2023/03/25 15:18:56;;;;;;;10.48;2.20;;;16.30;54.50;;;;;;4971193;28;20782;-79
2023/03/25 15:21:23;;;;;;;8.75;1.77;;;16.30;53.80;;;;;;4974486;28;20446;-81
2023/03/25 15:24:01;;;;;;;10.73;2.17;;;16.30;54.00;;;;;;4978971;28;20452;-81
2023/03/25 15:26:42;;;;;;;7.47;1.85;;;16.20;53.30;;;;;;4975041;28;20034;-82
2023/03/25 15:29:31;;;;;;;8.95;1.45;;;16.10;53.60;;;;;;4977222;28;20034;-82
2023/03/25 15:32:06;;;;;;;5.57;1.77;;;16.10;53.70;;;;;;4973677;28;20046;-78
2023/03/25 15:34:52;;;;;;;13.13;1.77;;;16.00;53.20;;;;;;4955325;28;20344;-80
2023/03/25 15:37:42;;;;;;;9.35;1.45;;;16.10;53.50;;;;;;4951084;28;20034;-85
2023/03/25 15:40:36;;;;;;;8.63;1.52;;;16.00;54.00;;;;;;4977629;28;20023;-80
2023/03/25 15:43:17;;;;;;;9.70;1.95;;;16.00;53.50;;;;;;4974795;28;20106;-80
2023/03/25 15:46:00;;;;;;;10.00;1.73;;;16.10;54.70;;;;;;4970120;28;20023;-81
2023/03/25 15:48:34;;;;;;;8.00;1.27;;;16.00;53.10;;;;;;4976266;28;20581;-81
2023/03/25 15:51:13;;;;;;;4.85;1.45;;;15.90;52.60;;;;;;4977896;28;20089;-80
2023/03/25 15:54:13;;;;;;;9.03;1.53;;;15.90;52.60;;;;;;4972143;28;20089;-81
2023/03/25 15:56:45;;;;;;;10.35;1.27;;;15.90;53.10;;;;;;4970991;28;20035;-80
2023/03/25 15:59:28;;;;;;;13.82;1.75;;;15.80;53.80;;;;;;4960062;28;20122;-80
2023/03/25 16:01:55;;;;;;;14.68;2.22;;;15.80;55.30;;;;;;4955499;28;20093;-81
2023/03/25 16:04:41;;;;;;;10.85;1.95;;;15.90;55.10;;;;;;4952353;28;20082;-79
2023/03/25 16:07:11;;;;;;;4.85;1.45;;;15.80;55.10;;;;;;4970805;28;20416;-80
2023/03/25 16:09:46;;;;;;;4.78;1.30;;;15.80;55.40;;;;;;4976227;28;20035;-82
2023/03/25 16:12:17;;;;;;;9.57;1.65;;;15.70;56.20;;;;;;4977280;28;20110;-80
2023/03/25 16:14:45;;;;;;;5.35;1.60;;;15.70;56.20;;;;;;4967413;28;20035;-84
2023/03/25 16:17:12;;;;;;;13.90;2.85;;;15.70;56.70;;;;;;4947793;28;20536;-77
2023/03/25 16:19:41;;;;;;;12.35;2.17;;;15.80;57.20;;;;;;4971552;28;20039;-78
2023/03/25 16:22:32;;;;;;;12.15;2.13;;;15.90;57.40;;;;;;4948366;28;20081;-81
2023/03/25 16:25:04;;;;;;;10.80;1.42;;;15.90;56.50;;;;;;4953017;28;20038;-81
2023/03/25 16:27:34;;;;;;;8.90;2.25;;;15.80;56.20;;;;;;4953526;28;20478;-81
2023/03/25 16:30:00;;;;;;;13.18;1.60;;;15.80;56.40;;;;;;4952213;28;20039;-82
2023/03/25 16:32:32;;;;;;;9.00;1.67;;;15.60;56.20;;;;;;4973620;28;20137;-83
2023/03/25 16:34:58;;;;;;;8.43;2.00;;;15.30;56.50;;;;;;4968614;28;20035;-83
2023/03/25 16:37:25;;;;;;;11.48;2.33;;;15.20;57.00;;;;;;4973207;28;20018;-85
2023/03/25 16:39:56;;;;;;;8.85;1.45;;;15.20;57.80;;;;;;4954496;28;20073;-86
2023/03/25 16:42:34;;;;;;;8.57;1.80;;;15.20;58.10;;;;;;4957755;28;20060;-86
2023/03/25 16:45:01;;;;;;;14.25;2.08;;;15.20;58.50;;;;;;4967070;28;20062;-81
2023/03/25 16:47:29;;;;;;;7.75;1.65;;;15.30;58.10;;;;;;4973608;28;20034;-79
2023/03/25 16:49:58;;;;;;;7.00;2.03;;;15.20;56.70;;;;;;4976350;28;20058;-77
2023/03/25 16:52:27;;;;;;;9.55;2.17;;;15.10;55.50;;;;;;4971864;28;20394;-79
2023/03/25 16:54:53;;;;;;;6.60;1.50;;;15.10;55.80;;;;;;4976376;28;20037;-76
2023/03/25 16:57:31;;;;;;;3.67;1.55;;;15.00;56.10;;;;;;4972089;28;20557;-76
2023/03/25 17:00:18;;;;;;;10.65;1.52;;;14.80;56.70;;;;;;4973935;28;20023;-78
2023/03/25 17:02:47;;;;;;;9.70;1.58;;;14.80;57.90;;;;;;4969914;28;20035;-80
2023/03/25 17:05:17;;;;;;;4.78;1.08;;;14.80;57.30;;;;;;4974601;28;20117;-78
2023/03/25 17:08:03;;;;;;;6.90;1.83;;;14.70;58.10;;;;;;4974603;28;20118;-82
2023/03/25 17:10:50;;;;;;;6.43;1.48;;;14.80;57.90;;;;;;4975785;28;20035;-81
2023/03/25 17:13:23;;;;;;;9.15;1.90;;;14.70;59.10;;;;;;4970723;28;20667;-79
2023/03/25 17:15:50;;;;;;;11.00;1.42;;;14.80;59.10;;;;;;4956442;28;20033;-76
2023/03/25 17:18:18;;;;;;;10.70;2.08;;;14.80;59.70;;;;;;4973318;28;20023;-76
2023/03/25 17:20:45;;;;;;;8.07;1.95;;;14.70;59.90;;;;;;4974133;28;20497;-77
2023/03/25 17:23:26;;;;;;;11.48;2.28;;;14.80;60.30;;;;;;4972905;28;20493;-78
2023/03/25 17:25:53;;;;;;;;;;;14.70;60.20;;;;;;4972841;28;20027;-79
2023/03/25 17:28:37;;;;;;;7.43;1.25;;;14.60;60.00;;;;;;4971552;28;19910;-78
2023/03/25 17:31:29;;;;;;;7.60;2.22;;;14.60;60.30;;;;;;4971555;28;20055;-79
2023/03/25 17:34:07;;;;;;;11.35;2.10;;;14.60;60.80;;;;;;4956540;28;20034;-79
2023/03/25 17:36:42;;;;;;;10.00;2.28;;;14.60;61.10;;;;;;4959120;28;20061;-78
2023/03/25 17:39:20;;;;;;;6.75;1.60;;;14.60;61.90;;;;;;4955605;28;20042;-79
2023/03/25 17:41:47;;;;;;;10.20;2.42;;;14.50;62.60;;;;;;4966979;28;20038;-79
2023/03/25 17:44:15;;;;;;;8.75;1.73;;;14.50;63.20;;;;;;4970815;28;20050;-79
2023/03/25 17:46:41;;;;;;;5.82;1.52;;;14.40;63.70;;;;;;4956938;28;20027;-79
2023/03/25 17:49:16;;;;;;;11.13;2.03;;;14.30;63.70;;;;;;4974925;28;20055;-79
2023/03/25 17:51:42;;;;;;;9.95;2.55;;;14.30;63.80;;;;;;4971621;28;20130;-78
2023/03/25 17:54:08;;;;;;;11.23;1.83;;;14.20;64.20;;;;;;4973121;28;20023;-79
2023/03/25 17:56:37;;;;;;;11.82;2.42;;;14.10;64.50;;;;;;4974218;28;20101;-79
2023/03/25 17:59:18;;;;;;;10.82;2.15;;;14.20;64.50;;;;;;4968220;28;20113;-79
2023/03/25 18:01:46;;;;;;;9.98;2.42;;;14.10;64.30;;;;;;4964054;28;20126;-79
2023/03/25 18:04:13;;;;;;;8.85;1.67;;;14.00;64.10;;;;;;4956572;28;20019;-79
2023/03/25 18:06:39;;;;;;;17.25;2.63;;;13.90;63.90;;;;;;4955382;28;20103;-79
2023/03/25 18:09:17;;;;;;;10.60;2.50;;;13.80;64.10;;;;;;4955494;28;20035;-78
2023/03/25 18:11:48;;;;;;;8.65;2.13;;;13.80;64.60;;;;;;4974246;28;20022;-79
2023/03/25 18:14:14;;;;;;;13.65;2.78;;;13.70;64.70;;;;;;4966582;28;20109;-76
2023/03/25 18:16:39;;;;;;;10.00;1.80;;;13.70;65.20;;;;;;4968174;28;20103;-78
2023/03/25 18:19:17;;;;;;;8.70;2.40;;;13.60;65.50;;;;;;4968331;28;21121;-80
2023/03/25 18:21:43;;;;;;;9.88;1.88;;;13.70;66.00;;;;;;4970302;28;20027;-78
2023/03/25 18:24:08;;;;;;;7.43;2.13;;;13.60;66.20;;;;;;4972071;28;20030;-79
2023/03/25 18:26:34;;;;;;;10.65;2.55;;;13.60;67.00;;;;;;4971424;28;20027;-79
2023/03/25 18:29:01;;;;;;;7.15;2.45;;;13.60;67.80;;;;;;4951416;28;20031;-79
2023/03/25 18:31:27;;;;;;;5.78;1.77;;;13.50;68.60;;;;;;4971509;28;20058;-79
2023/03/25 18:33:54;;;;;;;10.57;1.95;;;13.30;69.20;;;;;;4949426;28;20027;-79
2023/03/25 18:36:20;;;;;;;5.25;1.70;;;13.30;69.30;;;;;;4974641;28;20039;-78
2023/03/25 18:38:46;;;;;;;6.47;1.92;;;13.20;69.60;;;;;;4967424;28;20054;-79
2023/03/25 18:41:13;;;;;;;5.13;2.25;;;13.20;70.10;;;;;;4955337;28;20061;-79